< < Back
Terminal Aerodrome Forecast


Current Version              Previous Versions:   1  2  3  4  5  6  7  8  9  

Terminal Aerodrome Forecast

773
FTUS42 KFFC 231100
TAFPDK
TAF
KPDK 231126Z 2312/2412 32006KT P6SM SKC
     FM240500 02005KT P6SM SKC
     FM240800 07005KT P6SM SKC=



Latest METAR

447
SAUS70 KWBC 241000 RRC
MTRPDK
METAR KPDK 240953Z AUTO 00000KT 10SM CLR 06/04 A3000 RMK AO2 SLP156
T00560039


USA.gov is the U.S. government's official web portal to all federal, state and local government web resources and services.